DTMB/MIR METAR and TAF weather

Enter ICAO airport designator
Station Type Date Time Source
DTMB METAR 2021/08/04 19:30 UTC NOAA

DTMB 041930Z 17010KT CAVOK 35/19 Q1010


Station Type Date Time Source
DTMB Decoded METAR 2021/08/04 19:30 UTC NOAA

Habib Bourguiba , Tunisia (DTMB) 35-46N 010-45E
Aug 04, 2021 - 03:30 PM EDT / 2021.08.04 1930 UTC
Wind: from the S (170 degrees) at 12 MPH (10 KT):0
Visibility: greater than 7 mile(s):0
Temperature: 95 F (35 C)
Heat index: 98.4 F (36.9 C):1
Dew Point: 66 F (19 C)
Relative Humidity: 39%
Pressure (altimeter): 29.83 in. Hg (1010 hPa)
ob: DTMB 041930Z 17010KT CAVOK 35/19 Q1010
cycle: 19

Station Type Date Time Source
DTMB TAF 2021/08/04 18:06 UTC NOAA

TAF TAF DTMB 041700Z 0418/0518 14016KT CAVOK
BECMG 0419/0421 36015KT
BECMG 0511/0513 06011KT

Example: see airport list